Latest Weather Observations for Walpeup

IDV60801

Issued at 11:02 am EST Sunday 16 June 2019 (issued every 10 minutes, with the page automatically refreshed every 10 minutes)

About weather observations | Map of weather stations | Latest weather observations for VIC | Other Formats
Station Details ID: 076064 Name: WALPEUP RESEARCH Lat: -35.12 Lon: 142.00 Height: 105.0 m
Data from the previous 72 hours. | See also: Recent months at Walpeup
Date/Time
EST
Temp
°C
App
Temp
°C
Dew
Point
°C
Rel
Hum
%
Delta-T
°C
Wind Press
QNH
hPa
Press
MSL
hPa
Rain since
9am
mm
Dir  Spd
km/h
Gust
km/h
Spd
kts
Gust
kts
16/11:00am 12.6 10.4 7.7 72 2.4 NNW 9 13 5 7 - - 0.0
16/10:30am 11.7 8.6 7.2 74 2.2 NNW 13 17 7 9 - - 0.0
16/10:00am 11.6 9.3 7.3 75 2.1 NW 9 13 5 7 - - 0.0
16/09:30am 11.7 8.5 7.0 73 2.3 N 13 19 7 10 - - 0.0
16/09:00am 11.0 7.4 6.7 75 2.0 N 15 19 8 10 - - 0.0
16/08:30am 10.1 6.8 6.6 79 1.6 N 13 17 7 9 - - 0.0
16/08:00am 9.5 5.8 6.4 81 1.4 N 15 19 8 10 - - 0.0
16/07:30am 9.2 5.9 6.6 84 1.2 N 13 17 7 9 - - 0.0
16/07:00am 8.3 5.7 5.9 85 1.1 NNE 9 11 5 6 - - 0.0
16/06:30am 8.5 5.1 6.0 84 1.1 NE 13 15 7 8 - - 0.0
16/06:00am 8.7 5.5 5.3 79 1.5 NNE 11 15 6 8 - - 0.0
16/05:30am 9.9 6.9 6.1 77 1.8 N 11 13 6 7 - - 0.0
16/05:00am 9.8 7.2 6.0 77 1.8 N 9 11 5 6 - - 0.0
16/04:30am 9.6 6.9 5.8 77 1.7 N 9 11 5 6 - - 0.0
16/04:00am 9.6 7.0 6.0 78 1.7 N 9 9 5 5 - - 0.0
16/03:30am 9.9 7.3 5.9 76 1.9 N 9 13 5 7 - - 0.0
16/03:00am 9.4 6.7 5.6 77 1.7 N 9 11 5 6 - - 0.0
16/02:30am 9.3 6.6 5.5 77 1.7 N 9 9 5 5 - - 0.0
16/02:00am 9.8 7.1 5.4 74 2.0 N 9 9 5 5 - - 0.0
16/01:30am 9.8 7.1 5.6 75 1.9 N 9 9 5 5 - - 0.0
16/01:00am 9.7 7.0 5.7 76 1.8 N 9 11 5 6 - - 0.0
16/12:30am 10.2 7.2 6.0 75 2.0 N 11 13 6 7 - - 0.0
16/12:00am 10.3 6.9 5.7 73 2.1 N 13 15 7 8 - - 0.0
 
Date/Time
EST
Temp
°C
App
Temp
°C
Dew
Point
°C
Rel
Hum
%
Delta-T
°C
Wind Press
QNH
hPa
Press
MSL
hPa
Rain since
9am
mm
Dir  Spd
km/h
Gust
km/h
Spd
kts
Gust
kts
15/11:30pm 10.4 7.0 5.8 73 2.1 N 13 17 7 9 - - 0.0
15/11:00pm 10.6 7.7 6.4 75 2.0 N 11 13 6 7 - - 0.0
15/10:30pm 10.8 7.9 6.6 75 2.0 N 11 11 6 6 - - 0.0
15/10:00pm 11.0 8.5 6.6 74 2.1 N 9 9 5 5 - - 0.0
15/09:30pm 10.9 8.8 6.6 75 2.0 N 7 9 4 5 - - 0.0
15/09:00pm 10.8 8.7 6.7 76 1.9 NNW 7 9 4 5 - - 0.0
15/08:30pm 10.9 8.8 6.5 74 2.1 N 7 9 4 5 - - 0.0
15/08:00pm 11.4 8.8 6.3 71 2.4 NNW 9 11 5 6 - - 0.0
15/07:30pm 11.6 9.1 6.7 72 2.3 NW 9 13 5 7 - - 0.0
15/07:00pm 11.4 8.9 6.5 72 2.3 NNW 9 9 5 5 - - 0.0
15/06:30pm 12.2 10.3 6.5 68 2.7 NNW 6 6 3 3 - - 0.0
15/06:00pm 12.2 11.0 6.5 68 2.7 NW 2 4 1 2 - - 0.0
15/05:30pm 13.5 11.4 6.8 64 3.3 WNW 7 9 4 5 - - 0.0
15/05:00pm 15.3 12.9 6.8 57 4.2 WNW 9 11 5 6 - - 0.0
15/04:30pm 17.1 14.3 6.9 51 5.1 WNW 11 15 6 8 - - 0.0
15/04:00pm 16.7 13.4 6.5 51 5.0 WNW 13 19 7 10 - - 0.0
15/03:30pm 17.3 15.4 7.4 52 5.0 NW 7 11 4 6 - - 0.0
15/03:00pm 16.7 13.8 8.1 57 4.4 NNW 13 17 7 9 - - 0.0
15/02:30pm 17.0 15.1 8.9 59 4.2 NW 9 15 5 8 - - 0.0
15/02:00pm 16.1 14.1 8.8 62 3.8 NW 9 15 5 8 - - 0.0
15/01:30pm 16.0 13.8 9.2 64 3.5 N 11 17 6 9 - - 0.0
15/01:00pm 16.7 14.6 9.9 64 3.6 NNW 11 17 6 9 - - 0.0
15/12:30pm 16.4 14.9 10.5 68 3.1 NNW 9 13 5 7 - - 0.0
15/12:00pm 15.2 14.3 9.3 68 3.0 WNW 4 7 2 4 - - 0.0
15/11:30am 15.1 14.7 9.9 71 2.7 NW 2 6 1 3 - - 0.0
15/11:00am 14.5 13.6 10.5 77 2.1 WNW 6 9 3 5 - - 0.0
15/10:30am 13.9 13.0 10.7 81 1.7 WNW 6 9 3 5 - - 0.0
15/10:00am 12.6 11.1 10.5 87 1.1 W 9 11 5 6 - - 0.0
15/09:30am 11.3 9.8 10.5 95 0.4 WNW 9 11 5 6 - - 0.0
15/09:00am 10.3 9.2 9.8 97 0.3 WNW 6 9 3 5 - - 0.2
15/08:30am 10.0 8.2 9.5 97 0.3 NW 9 11 5 6 - - 0.2
15/08:00am 9.8 8.9 9.3 97 0.2 NNW 4 6 2 3 - - 0.2
15/07:30am 9.6 8.2 9.0 96 0.3 NNW 6 6 3 3 - - 0.2
15/07:00am 9.8 8.8 9.0 95 0.4 NW 4 7 2 4 - - 0.0
15/06:30am 9.9 8.4 9.0 94 0.4 WNW 7 9 4 5 - - 0.0
15/06:00am 10.0 8.7 9.1 94 0.4 WNW 6 7 3 4 - - 0.0
15/05:30am 9.7 8.3 8.9 95 0.4 WNW 6 7 3 4 - - 0.0
15/05:00am 9.6 8.2 8.8 95 0.4 WNW 6 7 3 4 - - 0.0
15/04:30am 9.6 8.0 8.8 95 0.4 NW 7 9 4 5 - - 0.0
15/04:00am 9.8 7.9 8.9 94 0.4 NW 9 11 5 6 - - 0.0
15/03:30am 9.8 7.8 8.6 92 0.6 NW 9 13 5 7 - - 0.0
15/03:00am 10.1 7.8 8.9 92 0.6 NW 11 15 6 8 - - 0.0
15/02:30am 10.0 7.6 8.6 91 0.7 NNW 11 15 6 8 - - 0.0
15/02:00am 9.8 7.3 8.4 91 0.7 NNW 11 13 6 7 - - 0.0
15/01:30am 9.7 7.2 8.1 90 0.8 NNW 11 13 6 7 - - 0.0
15/01:00am 10.0 7.9 8.3 89 0.8 NW 9 11 5 6 - - 0.0
15/12:30am 10.8 8.0 8.7 87 1.0 NNW 13 15 7 8 - - 0.0
15/12:00am 11.0 8.6 8.8 86 1.1 NNW 11 13 6 7 - - 0.0
 
Date/Time
EST
Temp
°C
App
Temp
°C
Dew
Point
°C
Rel
Hum
%
Delta-T
°C
Wind Press
QNH
hPa
Press
MSL
hPa
Rain since
9am
mm
Dir  Spd
km/h
Gust
km/h
Spd
kts
Gust
kts
14/11:30pm 10.9 8.5 8.8 87 1.0 NNW 11 15 6 8 - - 0.0
14/11:00pm 10.2 7.7 8.3 88 0.9 NNW 11 11 6 6 - - 0.0
14/10:30pm 10.6 8.2 8.5 87 1.0 NNW 11 13 6 7 - - 0.0
14/10:00pm 10.0 8.2 8.1 88 0.9 NW 7 9 4 5 - - 0.0
14/09:30pm 10.1 7.9 7.7 85 1.2 NNW 9 11 5 6 - - 0.0
14/09:00pm 9.9 8.0 7.5 85 1.2 NW 7 9 4 5 - - 0.0
14/08:30pm 9.9 7.5 7.2 83 1.3 NNW 9 9 5 5 - - 0.0
14/08:00pm 10.9 9.6 7.6 80 1.6 NW 4 6 2 3 - - 0.0
14/07:30pm 11.5 10.3 8.0 79 1.7 WNW 4 6 2 3 - - 0.0
14/07:00pm 12.1 10.5 8.0 76 2.0 W 6 7 3 4 - - 0.0
14/06:30pm 12.7 11.0 8.4 75 2.1 W 7 9 4 5 - - 0.0
14/06:00pm 13.5 11.9 8.8 73 2.4 WNW 7 9 4 5 - - 0.0
14/05:30pm 14.0 11.5 8.2 68 2.9 W 11 15 6 8 - - 0.0
14/05:00pm 15.5 12.7 8.7 64 3.5 W 13 20 7 11 - - 0.0
14/04:30pm 15.8 13.4 9.9 68 3.1 W 13 19 7 10 - - 0.0
14/04:00pm 15.7 12.5 9.8 68 3.1 W 17 26 9 14 - - 0.0
14/03:30pm 16.0 13.2 10.1 68 3.1 W 15 26 8 14 - - 0.0
14/03:00pm 16.0 13.6 11.4 74 2.5 W 15 26 8 14 - - 0.0
14/02:30pm 16.0 13.2 9.9 67 3.2 W 15 20 8 11 - - 0.0
14/02:00pm 16.3 12.6 9.5 64 3.6 W 19 24 10 13 - - 0.0
14/01:30pm 16.6 12.6 9.1 61 3.9 WNW 20 30 11 16 - - 0.0
14/01:00pm 17.1 13.6 10.2 64 3.7 WNW 19 28 10 15 - - 0.0
14/12:30pm 15.8 12.2 9.7 67 3.2 WNW 19 24 10 13 - - 0.0
14/12:00pm 15.6 12.8 9.9 69 3.0 WNW 15 20 8 11 - - 0.0
14/11:30am 15.5 12.4 10.3 71 2.7 WNW 17 24 9 13 - - 0.0
14/11:00am 14.4 11.7 10.4 77 2.1 NW 15 20 8 11 - - 0.0
14/10:30am 13.0 9.4 9.8 81 1.6 NW 19 24 10 13 - - 0.0
14/10:00am 12.2 9.1 10.3 88 1.0 NW 17 20 9 11 - - 0.0
14/09:30am 10.4 8.0 10.2 99 0.1 NW 13 19 7 10 - - 0.0
14/09:00am 9.9 7.8 9.9 100 0.0 NNW 11 15 6 8 - - 0.2
14/08:30am 8.8 6.4 8.8 100 0.0 NNW 11 13 6 7 - - 0.2
14/08:00am 8.3 6.2 8.3 100 0.0 NNW 9 11 5 6 - - 0.0
14/07:30am 8.3 6.2 8.3 100 0.0 NW 9 11 5 6 - - 0.0
14/07:00am 8.0 6.4 8.0 100 0.0 NW 6 7 3 4 - - 0.0
14/06:30am 7.8 5.9 7.7 99 0.0 NW 7 9 4 5 - - 0.0
14/06:00am 8.2 6.4 8.1 99 0.0 NNW 7 9 4 5 - - 0.0
14/05:30am 8.5 6.4 8.4 99 0.0 NNW 9 9 5 5 - - 0.0
14/05:00am 8.9 6.9 8.8 99 0.0 NNW 9 11 5 6 - - 0.0
14/04:30am 9.0 7.4 8.9 99 0.0 NNW 7 9 4 5 - - 0.0
14/04:00am 9.2 7.3 9.1 99 0.0 NW 9 11 5 6 - - 0.0
14/03:30am 9.1 7.2 9.0 99 0.0 NW 9 9 5 5 - - 0.0
14/03:00am 8.9 7.2 8.5 97 0.2 NW 7 9 4 5 - - 0.0
14/02:30am 9.1 7.1 8.5 96 0.3 NW 9 11 5 6 - - 0.0
14/02:00am 9.1 7.4 8.2 94 0.4 NW 7 11 4 6 - - 0.0
14/01:30am 9.4 6.9 8.3 93 0.5 NW 11 13 6 7 - - 0.0
14/01:00am 9.5 7.4 8.1 91 0.7 NNW 9 11 5 6 - - 0.0
14/12:30am 9.8 7.7 8.2 90 0.8 NNW 9 13 5 7 - - 0.0
14/12:00am 10.1 7.6 8.4 89 0.8 NNW 11 13 6 7 - - 0.0
 
Date/Time
EST
Temp
°C
App
Temp
°C
Dew
Point
°C
Rel
Hum
%
Delta-T
°C
Wind Press
QNH
hPa
Press
MSL
hPa
Rain since
9am
mm
Dir  Spd
km/h
Gust
km/h
Spd
kts
Gust
kts
13/11:30pm 10.2 8.1 8.3 88 0.9 NNW 9 13 5 7 - - 0.0
13/11:00pm 10.4 8.3 8.3 87 1.0 NNW 9 11 5 6 - - 0.0
13/10:30pm 10.9 8.5 8.7 86 1.1 NNW 11 13 6 7 - - 0.0
13/10:00pm 11.8 9.9 9.2 84 1.3 NNW 9 11 5 6 - - 0.0
13/09:30pm 11.7 9.5 9.4 86 1.2 NNW 11 13 6 7 - - 0.0
13/09:00pm 12.2 10.1 9.6 84 1.3 NW 11 15 6 8 - - 0.0
13/08:30pm 12.0 10.2 9.4 84 1.3 NNW 9 11 5 6 - - 0.0
13/08:00pm 11.5 10.0 9.2 86 1.2 NNW 7 9 4 5 - - 0.0
13/07:30pm 11.4 9.4 8.8 84 1.3 NW 9 11 5 6 - - 0.0
13/07:00pm 11.1 9.5 8.7 85 1.2 NW 7 9 4 5 - - 0.0
13/06:30pm 11.7 9.7 8.7 82 1.5 NNW 9 9 5 5 - - 0.0
13/06:00pm 12.1 10.2 8.9 81 1.6 NW 9 13 5 7 - - 0.0
13/05:30pm 12.6 10.5 9.6 82 1.5 NNW 11 13 6 7 - - 0.0
13/05:00pm 13.8 12.0 9.5 75 2.2 NW 9 13 5 7 - - 0.0
13/04:30pm 14.9 11.9 9.3 69 2.9 WNW 15 20 8 11 - - 0.0
13/04:00pm 15.6 11.1 8.6 63 3.6 WNW 22 30 12 16 - - 0.0
13/03:30pm 15.7 11.6 8.7 63 3.6 WNW 20 26 11 14 - - 0.0
13/03:00pm 16.2 12.1 8.7 61 3.9 WNW 20 28 11 15 - - 0.0
13/02:30pm 15.7 11.5 8.4 62 3.7 WNW 20 32 11 17 - - 0.0
13/02:00pm 15.5 11.6 8.7 64 3.5 W 19 28 10 15 - - 0.0
13/01:30pm 16.0 11.6 9.0 63 3.6 WNW 22 30 12 16 - - 0.0
13/01:00pm 15.8 12.1 9.5 66 3.3 WNW 19 26 10 14 - - 0.0
13/12:30pm 15.5 11.7 9.2 66 3.3 W 19 30 10 16 - - 0.0
13/12:00pm 15.1 11.3 9.9 71 2.7 WNW 20 28 11 15 - - 0.0
13/11:30am 14.9 11.7 10.1 73 2.5 WNW 17 22 9 12 - - 0.0

Other formats

Comma delimited format used in spreadsheet applications
http://www.bom.gov.au/fwo/IDV60801/IDV60801.95831.axf

JavaScript Object Notation format (JSON) in row-major order
http://www.bom.gov.au/fwo/IDV60801/IDV60801.95831.json

Data quality

Most of these data are generated automatically and are frequently updated. Quality checks on data are not normally performed. It is possible for incorrect values to appear. Refer to information at About Latest Weather Observations and please check the disclaimer before using these data.